Covington, Georgia
Current Conditions -  °F | °C
As of 8:55 AM on Monday 24 Nov 2014 (Local Time) from KCVC Reporting Station
Scattered Clouds Scattered Clouds  
Wind Chill: 63°   Ceiling: Unl
Heat Index: 63°   Visibility: 10mi
Dew Point: 61°   Wind: 3mph
Humidity: 94%   Direction: 220°SW
Pressure: 29.81"   Gusts: NA
Location:  33.6°N, 83.86°W
Report Text: KCVC 241355Z AUTO 22003KT 10SM SCT020 17/16 A2981 RMK AO2
Loading
Personal Weather Stations






























Interactive Weather Map New forecast layout! Learn more

10-Day Weather Forecast

Advertisements
Track Severe Weather on mobile